sensor_id;sensor_type;location;lat;lon;timestamp;P1;durP1;ratioP1;P2;durP2;ratioP2
38083;SDS011;23894;51.466;7.444;2022-09-09T00:03:04;6.22;;;2.42;;
38083;SDS011;23894;51.466;7.444;2022-09-09T00:05:17;7.22;;;3.00;;
38083;SDS011;23894;51.466;7.444;2022-09-09T00:07:28;7.20;;;2.03;;
38083;SDS011;23894;51.466;7.444;2022-09-09T00:09:53;8.70;;;3.08;;
38083;SDS011;23894;51.466;7.444;2022-09-09T00:12:01;5.53;;;2.33;;
38083;SDS011;23894;51.466;7.444;2022-09-09T00:14:05;8.27;;;2.90;;
38083;SDS011;23894;51.466;7.444;2022-09-09T00:16:11;7.07;;;2.55;;
38083;SDS011;23894;51.466;7.444;2022-09-09T00:18:44;4.60;;;2.25;;
38083;SDS011;23894;51.466;7.444;2022-09-09T00:23:00;6.88;;;2.53;;
38083;SDS011;23894;51.466;7.444;2022-09-09T00:25:22;8.32;;;3.53;;
38083;SDS011;23894;51.466;7.444;2022-09-09T00:31:33;6.60;;;3.33;;
38083;SDS011;23894;51.466;7.444;2022-09-09T00:35:36;7.90;;;3.13;;
38083;SDS011;23894;51.466;7.444;2022-09-09T00:37:39;8.77;;;2.80;;
38083;SDS011;23894;51.466;7.444;2022-09-09T00:39:42;8.13;;;2.88;;
38083;SDS011;23894;51.466;7.444;2022-09-09T00:44:31;5.18;;;2.42;;
38083;SDS011;23894;51.466;7.444;2022-09-09T00:52:37;6.35;;;2.95;;
38083;SDS011;23894;51.466;7.444;2022-09-09T00:56:52;5.32;;;2.17;;
38083;SDS011;23894;51.466;7.444;2022-09-09T01:01:15;6.55;;;2.25;;
38083;SDS011;23894;51.466;7.444;2022-09-09T01:03:35;7.20;;;2.63;;
38083;SDS011;23894;51.466;7.444;2022-09-09T01:07:40;6.45;;;2.80;;
38083;SDS011;23894;51.466;7.444;2022-09-09T01:11:49;6.65;;;2.80;;
38083;SDS011;23894;51.466;7.444;2022-09-09T01:13:55;7.53;;;2.78;;
38083;SDS011;23894;51.466;7.444;2022-09-09T01:15:59;6.82;;;3.05;;
38083;SDS011;23894;51.466;7.444;2022-09-09T01:18:10;6.72;;;2.92;;
38083;SDS011;23894;51.466;7.444;2022-09-09T01:24:27;6.38;;;3.60;;
38083;SDS011;23894;51.466;7.444;2022-09-09T01:26:35;8.43;;;2.80;;
38083;SDS011;23894;51.466;7.444;2022-09-09T01:28:37;6.55;;;3.00;;
38083;SDS011;23894;51.466;7.444;2022-09-09T01:30:40;8.88;;;3.30;;
38083;SDS011;23894;51.466;7.444;2022-09-09T01:32:43;12.52;;;2.88;;
38083;SDS011;23894;51.466;7.444;2022-09-09T01:34:45;8.80;;;3.05;;
38083;SDS011;23894;51.466;7.444;2022-09-09T01:40:48;7.47;;;2.78;;
38083;SDS011;23894;51.466;7.444;2022-09-09T01:42:52;9.77;;;2.97;;
38083;SDS011;23894;51.466;7.444;2022-09-09T01:46:55;6.55;;;2.58;;
38083;SDS011;23894;51.466;7.444;2022-09-09T01:48:56;7.45;;;2.92;;
38083;SDS011;23894;51.466;7.444;2022-09-09T01:50:58;7.35;;;3.25;;
38083;SDS011;23894;51.466;7.444;2022-09-09T01:55:00;8.48;;;2.78;;
38083;SDS011;23894;51.466;7.444;2022-09-09T02:05:16;8.57;;;2.58;;
38083;SDS011;23894;51.466;7.444;2022-09-09T02:07:26;5.00;;;2.30;;
38083;SDS011;23894;51.466;7.444;2022-09-09T02:09:29;6.55;;;2.67;;
38083;SDS011;23894;51.466;7.444;2022-09-09T02:11:30;6.80;;;2.50;;
38083;SDS011;23894;51.466;7.444;2022-09-09T02:13:32;7.68;;;2.65;;
38083;SDS011;23894;51.466;7.444;2022-09-09T02:15:39;8.13;;;2.65;;
38083;SDS011;23894;51.466;7.444;2022-09-09T02:17:43;6.93;;;2.15;;
38083;SDS011;23894;51.466;7.444;2022-09-09T02:19:46;6.68;;;2.28;;
38083;SDS011;23894;51.466;7.444;2022-09-09T02:21:49;7.43;;;2.67;;
38083;SDS011;23894;51.466;7.444;2022-09-09T02:23:51;6.90;;;2.45;;
38083;SDS011;23894;51.466;7.444;2022-09-09T02:25:53;9.15;;;2.15;;
38083;SDS011;23894;51.466;7.444;2022-09-09T02:27:55;7.72;;;2.22;;
38083;SDS011;23894;51.466;7.444;2022-09-09T02:30:00;6.38;;;2.70;;
38083;SDS011;23894;51.466;7.444;2022-09-09T02:32:03;6.43;;;2.50;;
38083;SDS011;23894;51.466;7.444;2022-09-09T02:34:06;9.10;;;2.95;;
38083;SDS011;23894;51.466;7.444;2022-09-09T02:36:10;6.13;;;2.38;;
38083;SDS011;23894;51.466;7.444;2022-09-09T02:38:13;7.00;;;2.40;;
38083;SDS011;23894;51.466;7.444;2022-09-09T02:40:15;6.28;;;2.33;;
38083;SDS011;23894;51.466;7.444;2022-09-09T02:42:16;5.72;;;2.30;;
38083;SDS011;23894;51.466;7.444;2022-09-09T02:44:18;7.65;;;2.67;;
38083;SDS011;23894;51.466;7.444;2022-09-09T02:48:22;6.43;;;2.10;;
38083;SDS011;23894;51.466;7.444;2022-09-09T02:50:51;7.60;;;2.40;;
38083;SDS011;23894;51.466;7.444;2022-09-09T02:54:49;4.55;;;1.85;;
38083;SDS011;23894;51.466;7.444;2022-09-09T02:56:52;6.97;;;2.30;;
38083;SDS011;23894;51.466;7.444;2022-09-09T02:58:56;6.95;;;2.55;;
38083;SDS011;23894;51.466;7.444;2022-09-09T03:00:57;8.07;;;2.33;;
38083;SDS011;23894;51.466;7.444;2022-09-09T03:02:59;7.82;;;2.13;;
38083;SDS011;23894;51.466;7.444;2022-09-09T03:07:01;5.68;;;1.95;;
38083;SDS011;23894;51.466;7.444;2022-09-09T03:09:03;6.25;;;2.00;;
38083;SDS011;23894;51.466;7.444;2022-09-09T03:13:05;6.07;;;2.00;;
38083;SDS011;23894;51.466;7.444;2022-09-09T03:15:06;6.00;;;1.92;;
38083;SDS011;23894;51.466;7.444;2022-09-09T03:17:08;7.68;;;2.20;;
38083;SDS011;23894;51.466;7.444;2022-09-09T03:21:10;6.30;;;2.33;;
38083;SDS011;23894;51.466;7.444;2022-09-09T03:25:13;7.68;;;1.88;;
38083;SDS011;23894;51.466;7.444;2022-09-09T03:31:17;7.00;;;2.05;;
38083;SDS011;23894;51.466;7.444;2022-09-09T03:33:19;6.95;;;2.35;;
38083;SDS011;23894;51.466;7.444;2022-09-09T03:35:20;7.15;;;2.25;;
38083;SDS011;23894;51.466;7.444;2022-09-09T03:39:22;8.10;;;2.35;;
38083;SDS011;23894;51.466;7.444;2022-09-09T03:43:25;6.10;;;2.15;;
38083;SDS011;23894;51.466;7.444;2022-09-09T03:45:26;5.93;;;1.90;;
38083;SDS011;23894;51.466;7.444;2022-09-09T03:47:27;7.82;;;2.35;;
38083;SDS011;23894;51.466;7.444;2022-09-09T03:49:28;5.85;;;2.00;;
38083;SDS011;23894;51.466;7.444;2022-09-09T03:51:29;7.13;;;1.98;;
38083;SDS011;23894;51.466;7.444;2022-09-09T03:53:30;7.80;;;2.33;;
38083;SDS011;23894;51.466;7.444;2022-09-09T03:55:33;6.93;;;2.10;;
38083;SDS011;23894;51.466;7.444;2022-09-09T03:57:35;8.57;;;2.33;;
38083;SDS011;23894;51.466;7.444;2022-09-09T03:59:36;5.22;;;1.80;;
38083;SDS011;23894;51.466;7.444;2022-09-09T04:03:38;5.95;;;2.03;;
38083;SDS011;23894;51.466;7.444;2022-09-09T04:05:39;7.20;;;2.38;;
38083;SDS011;23894;51.466;7.444;2022-09-09T04:07:42;7.50;;;1.98;;
38083;SDS011;23894;51.466;7.444;2022-09-09T04:09:43;5.28;;;1.95;;
38083;SDS011;23894;51.466;7.444;2022-09-09T04:13:46;6.88;;;2.38;;
38083;SDS011;23894;51.466;7.444;2022-09-09T04:17:48;7.70;;;2.38;;
38083;SDS011;23894;51.466;7.444;2022-09-09T04:19:49;8.02;;;2.40;;
38083;SDS011;23894;51.466;7.444;2022-09-09T04:21:50;8.98;;;2.45;;
38083;SDS011;23894;51.466;7.444;2022-09-09T04:23:52;9.25;;;2.60;;
38083;SDS011;23894;51.466;7.444;2022-09-09T04:25:53;6.82;;;2.20;;
38083;SDS011;23894;51.466;7.444;2022-09-09T04:27:55;6.35;;;2.13;;
38083;SDS011;23894;51.466;7.444;2022-09-09T04:29:56;6.30;;;2.00;;
38083;SDS011;23894;51.466;7.444;2022-09-09T04:33:58;6.32;;;2.17;;
38083;SDS011;23894;51.466;7.444;2022-09-09T04:36:04;7.35;;;2.38;;
38083;SDS011;23894;51.466;7.444;2022-09-09T04:40:09;5.57;;;2.10;;
38083;SDS011;23894;51.466;7.444;2022-09-09T04:44:11;5.82;;;1.95;;
38083;SDS011;23894;51.466;7.444;2022-09-09T04:48:13;8.10;;;1.95;;
38083;SDS011;23894;51.466;7.444;2022-09-09T04:50:14;9.25;;;2.42;;
38083;SDS011;23894;51.466;7.444;2022-09-09T04:52:16;10.65;;;2.30;;
38083;SDS011;23894;51.466;7.444;2022-09-09T04:54:18;6.47;;;2.45;;
38083;SDS011;23894;51.466;7.444;2022-09-09T04:58:20;7.55;;;2.45;;
38083;SDS011;23894;51.466;7.444;2022-09-09T05:00:22;9.05;;;2.17;;
38083;SDS011;23894;51.466;7.444;2022-09-09T05:04:26;6.03;;;1.95;;
38083;SDS011;23894;51.466;7.444;2022-09-09T05:06:28;8.52;;;2.58;;
38083;SDS011;23894;51.466;7.444;2022-09-09T05:08:36;7.18;;;2.40;;
38083;SDS011;23894;51.466;7.444;2022-09-09T05:10:44;6.60;;;2.25;;
38083;SDS011;23894;51.466;7.444;2022-09-09T05:12:51;8.48;;;2.45;;
38083;SDS011;23894;51.466;7.444;2022-09-09T05:14:55;7.05;;;2.45;;
38083;SDS011;23894;51.466;7.444;2022-09-09T05:16:58;7.63;;;2.30;;
38083;SDS011;23894;51.466;7.444;2022-09-09T05:19:00;12.10;;;2.65;;
38083;SDS011;23894;51.466;7.444;2022-09-09T05:21:04;6.95;;;2.33;;
38083;SDS011;23894;51.466;7.444;2022-09-09T05:23:07;7.88;;;2.40;;
38083;SDS011;23894;51.466;7.444;2022-09-09T05:25:10;7.50;;;1.92;;
38083;SDS011;23894;51.466;7.444;2022-09-09T05:29:14;8.48;;;2.20;;
38083;SDS011;23894;51.466;7.444;2022-09-09T05:31:20;7.63;;;2.00;;
38083;SDS011;23894;51.466;7.444;2022-09-09T05:33:21;7.35;;;2.13;;
38083;SDS011;23894;51.466;7.444;2022-09-09T05:35:23;7.57;;;2.38;;
38083;SDS011;23894;51.466;7.444;2022-09-09T05:37:25;6.82;;;2.28;;
38083;SDS011;23894;51.466;7.444;2022-09-09T05:39:26;6.20;;;2.30;;
38083;SDS011;23894;51.466;7.444;2022-09-09T05:41:30;9.38;;;2.75;;
38083;SDS011;23894;51.466;7.444;2022-09-09T05:43:33;10.02;;;2.28;;
38083;SDS011;23894;51.466;7.444;2022-09-09T05:45:37;7.32;;;1.88;;
38083;SDS011;23894;51.466;7.444;2022-09-09T05:47:39;8.10;;;2.10;;
38083;SDS011;23894;51.466;7.444;2022-09-09T05:49:40;7.80;;;2.38;;
38083;SDS011;23894;51.466;7.444;2022-09-09T05:53:44;9.75;;;1.90;;
38083;SDS011;23894;51.466;7.444;2022-09-09T05:55:45;8.20;;;2.13;;
38083;SDS011;23894;51.466;7.444;2022-09-09T05:57:48;6.90;;;2.05;;
38083;SDS011;23894;51.466;7.444;2022-09-09T05:59:49;9.07;;;2.10;;
38083;SDS011;23894;51.466;7.444;2022-09-09T06:03:52;6.35;;;2.25;;
38083;SDS011;23894;51.466;7.444;2022-09-09T06:05:57;7.22;;;1.60;;
38083;SDS011;23894;51.466;7.444;2022-09-09T06:07:58;7.93;;;2.15;;
38083;SDS011;23894;51.466;7.444;2022-09-09T06:12:00;6.53;;;1.90;;
38083;SDS011;23894;51.466;7.444;2022-09-09T06:16:02;7.63;;;1.85;;
38083;SDS011;23894;51.466;7.444;2022-09-09T06:18:04;8.88;;;2.00;;
38083;SDS011;23894;51.466;7.444;2022-09-09T06:22:06;8.90;;;2.22;;
38083;SDS011;23894;51.466;7.444;2022-09-09T06:26:15;9.20;;;1.98;;
38083;SDS011;23894;51.466;7.444;2022-09-09T06:28:20;11.35;;;2.10;;
38083;SDS011;23894;51.466;7.444;2022-09-09T06:32:22;7.32;;;1.80;;
38083;SDS011;23894;51.466;7.444;2022-09-09T06:36:25;9.52;;;2.28;;
38083;SDS011;23894;51.466;7.444;2022-09-09T06:38:26;8.95;;;2.03;;
38083;SDS011;23894;51.466;7.444;2022-09-09T06:40:30;8.80;;;2.40;;
38083;SDS011;23894;51.466;7.444;2022-09-09T06:44:32;9.43;;;2.30;;
38083;SDS011;23894;51.466;7.444;2022-09-09T06:46:33;8.70;;;2.20;;
38083;SDS011;23894;51.466;7.444;2022-09-09T06:48:35;8.05;;;2.53;;
38083;SDS011;23894;51.466;7.444;2022-09-09T06:52:37;7.75;;;2.35;;
38083;SDS011;23894;51.466;7.444;2022-09-09T06:56:39;6.22;;;2.05;;
38083;SDS011;23894;51.466;7.444;2022-09-09T06:58:42;5.95;;;1.77;;
38083;SDS011;23894;51.466;7.444;2022-09-09T07:00:44;9.57;;;2.13;;
38083;SDS011;23894;51.466;7.444;2022-09-09T07:04:46;6.30;;;1.77;;
38083;SDS011;23894;51.466;7.444;2022-09-09T07:06:50;7.35;;;2.08;;
38083;SDS011;23894;51.466;7.444;2022-09-09T07:08:53;8.68;;;2.08;;
38083;SDS011;23894;51.466;7.444;2022-09-09T07:10:54;7.35;;;2.20;;
38083;SDS011;23894;51.466;7.444;2022-09-09T07:13:02;8.90;;;1.90;;
38083;SDS011;23894;51.466;7.444;2022-09-09T07:15:04;10.45;;;2.40;;
38083;SDS011;23894;51.466;7.444;2022-09-09T07:17:06;8.73;;;2.05;;
38083;SDS011;23894;51.466;7.444;2022-09-09T07:19:07;6.43;;;1.85;;
38083;SDS011;23894;51.466;7.444;2022-09-09T07:21:12;7.53;;;1.80;;
38083;SDS011;23894;51.466;7.444;2022-09-09T07:23:13;7.97;;;2.00;;
38083;SDS011;23894;51.466;7.444;2022-09-09T07:25:14;6.15;;;1.90;;
38083;SDS011;23894;51.466;7.444;2022-09-09T07:27:17;6.78;;;1.88;;
38083;SDS011;23894;51.466;7.444;2022-09-09T07:31:26;7.00;;;1.55;;
38083;SDS011;23894;51.466;7.444;2022-09-09T07:33:27;6.95;;;1.88;;
38083;SDS011;23894;51.466;7.444;2022-09-09T07:35:30;6.53;;;1.90;;
38083;SDS011;23894;51.466;7.444;2022-09-09T07:39:32;8.35;;;1.95;;
38083;SDS011;23894;51.466;7.444;2022-09-09T07:43:34;7.75;;;1.80;;
38083;SDS011;23894;51.466;7.444;2022-09-09T07:47:36;5.85;;;1.45;;
38083;SDS011;23894;51.466;7.444;2022-09-09T07:51:40;7.35;;;1.92;;
38083;SDS011;23894;51.466;7.444;2022-09-09T07:53:41;6.60;;;1.90;;
38083;SDS011;23894;51.466;7.444;2022-09-09T07:57:43;8.48;;;2.05;;
38083;SDS011;23894;51.466;7.444;2022-09-09T07:59:44;8.15;;;2.08;;
38083;SDS011;23894;51.466;7.444;2022-09-09T08:01:47;5.95;;;1.88;;
38083;SDS011;23894;51.466;7.444;2022-09-09T08:03:55;6.82;;;1.88;;
38083;SDS011;23894;51.466;7.444;2022-09-09T08:06:05;6.07;;;2.15;;
38083;SDS011;23894;51.466;7.444;2022-09-09T08:08:07;8.40;;;2.20;;
38083;SDS011;23894;51.466;7.444;2022-09-09T08:10:09;6.78;;;1.80;;
38083;SDS011;23894;51.466;7.444;2022-09-09T08:14:13;7.68;;;2.00;;
38083;SDS011;23894;51.466;7.444;2022-09-09T08:16:15;8.20;;;2.08;;
38083;SDS011;23894;51.466;7.444;2022-09-09T08:18:16;10.75;;;2.03;;
38083;SDS011;23894;51.466;7.444;2022-09-09T08:22:18;8.13;;;1.90;;
38083;SDS011;23894;51.466;7.444;2022-09-09T08:24:20;8.55;;;1.90;;
38083;SDS011;23894;51.466;7.444;2022-09-09T08:26:23;7.65;;;1.88;;
38083;SDS011;23894;51.466;7.444;2022-09-09T08:28:25;9.55;;;1.95;;
38083;SDS011;23894;51.466;7.444;2022-09-09T08:30:26;6.45;;;2.03;;
38083;SDS011;23894;51.466;7.444;2022-09-09T08:34:28;7.88;;;1.73;;
38083;SDS011;23894;51.466;7.444;2022-09-09T08:36:31;7.93;;;2.03;;
38083;SDS011;23894;51.466;7.444;2022-09-09T08:38:37;7.30;;;1.75;;
38083;SDS011;23894;51.466;7.444;2022-09-09T08:40:38;6.95;;;1.70;;
38083;SDS011;23894;51.466;7.444;2022-09-09T08:42:47;6.55;;;1.80;;
38083;SDS011;23894;51.466;7.444;2022-09-09T08:51:48;8.95;;;1.90;;
38083;SDS011;23894;51.466;7.444;2022-09-09T08:53:49;7.95;;;1.83;;
38083;SDS011;23894;51.466;7.444;2022-09-09T08:55:55;10.15;;;2.05;;
38083;SDS011;23894;51.466;7.444;2022-09-09T08:57:59;7.70;;;1.70;;
38083;SDS011;23894;51.466;7.444;2022-09-09T09:00:02;8.95;;;1.98;;
38083;SDS011;23894;51.466;7.444;2022-09-09T09:02:07;8.13;;;2.00;;
38083;SDS011;23894;51.466;7.444;2022-09-09T09:08:25;8.90;;;1.90;;
38083;SDS011;23894;51.466;7.444;2022-09-09T09:12:48;6.55;;;1.70;;
38083;SDS011;23894;51.466;7.444;2022-09-09T09:14:50;8.65;;;1.70;;
38083;SDS011;23894;51.466;7.444;2022-09-09T09:16:58;7.20;;;1.85;;
38083;SDS011;23894;51.466;7.444;2022-09-09T09:18:59;6.70;;;2.20;;
38083;SDS011;23894;51.466;7.444;2022-09-09T09:27:14;8.88;;;2.10;;
38083;SDS011;23894;51.466;7.444;2022-09-09T09:29:16;5.40;;;1.70;;
38083;SDS011;23894;51.466;7.444;2022-09-09T09:31:18;7.43;;;1.70;;
38083;SDS011;23894;51.466;7.444;2022-09-09T09:33:22;7.68;;;1.90;;
38083;SDS011;23894;51.466;7.444;2022-09-09T09:35:25;8.15;;;1.73;;
38083;SDS011;23894;51.466;7.444;2022-09-09T09:39:29;9.07;;;1.67;;
38083;SDS011;23894;51.466;7.444;2022-09-09T09:41:30;6.35;;;1.65;;
38083;SDS011;23894;51.466;7.444;2022-09-09T09:47:34;8.38;;;1.67;;
38083;SDS011;23894;51.466;7.444;2022-09-09T09:49:35;6.13;;;1.60;;
38083;SDS011;23894;51.466;7.444;2022-09-09T09:51:36;6.25;;;1.60;;
38083;SDS011;23894;51.466;7.444;2022-09-09T09:55:44;6.55;;;1.60;;
38083;SDS011;23894;51.466;7.444;2022-09-09T09:57:48;7.80;;;1.70;;
38083;SDS011;23894;51.466;7.444;2022-09-09T09:59:49;7.03;;;1.60;;
38083;SDS011;23894;51.466;7.444;2022-09-09T10:01:50;9.25;;;1.90;;
38083;SDS011;23894;51.466;7.444;2022-09-09T10:03:52;8.57;;;2.25;;
38083;SDS011;23894;51.466;7.444;2022-09-09T10:05:54;9.73;;;1.55;;
38083;SDS011;23894;51.466;7.444;2022-09-09T10:10:03;7.80;;;1.90;;
38083;SDS011;23894;51.466;7.444;2022-09-09T10:14:16;6.35;;;1.58;;
38083;SDS011;23894;51.466;7.444;2022-09-09T10:22:58;8.02;;;1.65;;
38083;SDS011;23894;51.466;7.444;2022-09-09T10:29:56;7.47;;;1.75;;
38083;SDS011;23894;51.466;7.444;2022-09-09T10:34:08;7.15;;;1.67;;
38083;SDS011;23894;51.466;7.444;2022-09-09T10:36:17;5.97;;;1.27;;
38083;SDS011;23894;51.466;7.444;2022-09-09T10:40:34;6.57;;;1.60;;
38083;SDS011;23894;51.466;7.444;2022-09-09T10:42:38;6.53;;;1.52;;
38083;SDS011;23894;51.466;7.444;2022-09-09T10:47:14;4.80;;;1.38;;
38083;SDS011;23894;51.466;7.444;2022-09-09T10:56:09;5.65;;;1.45;;
38083;SDS011;23894;51.466;7.444;2022-09-09T10:58:17;6.65;;;1.65;;
38083;SDS011;23894;51.466;7.444;2022-09-09T11:00:24;8.35;;;1.40;;
38083;SDS011;23894;51.466;7.444;2022-09-09T11:02:32;6.18;;;1.45;;
38083;SDS011;23894;51.466;7.444;2022-09-09T11:04:35;5.30;;;1.42;;
38083;SDS011;23894;51.466;7.444;2022-09-09T11:06:47;8.60;;;1.40;;
38083;SDS011;23894;51.466;7.444;2022-09-09T11:08:52;6.47;;;1.13;;
38083;SDS011;23894;51.466;7.444;2022-09-09T11:10:58;6.53;;;1.67;;
38083;SDS011;23894;51.466;7.444;2022-09-09T11:13:23;4.97;;;1.30;;
38083;SDS011;23894;51.466;7.444;2022-09-09T11:15:41;6.88;;;1.52;;
38083;SDS011;23894;51.466;7.444;2022-09-09T11:17:55;5.85;;;1.40;;
38083;SDS011;23894;51.466;7.444;2022-09-09T11:19:58;5.30;;;1.25;;
38083;SDS011;23894;51.466;7.444;2022-09-09T11:22:46;7.43;;;1.27;;
38083;SDS011;23894;51.466;7.444;2022-09-09T11:24:40;4.60;;;1.10;;
38083;SDS011;23894;51.466;7.444;2022-09-09T11:26:48;4.43;;;1.20;;
38083;SDS011;23894;51.466;7.444;2022-09-09T11:34:31;5.35;;;1.20;;
38083;SDS011;23894;51.466;7.444;2022-09-09T11:41:33;4.03;;;1.10;;
38083;SDS011;23894;51.466;7.444;2022-09-09T11:43:51;5.05;;;1.10;;
38083;SDS011;23894;51.466;7.444;2022-09-09T11:45:54;4.25;;;1.02;;
38083;SDS011;23894;51.466;7.444;2022-09-09T11:47:59;3.67;;;1.10;;
38083;SDS011;23894;51.466;7.444;2022-09-09T11:50:27;6.95;;;1.33;;
38083;SDS011;23894;51.466;7.444;2022-09-09T11:52:40;5.88;;;1.27;;
38083;SDS011;23894;51.466;7.444;2022-09-09T11:54:48;4.80;;;1.10;;
38083;SDS011;23894;51.466;7.444;2022-09-09T11:56:50;4.13;;;1.00;;
38083;SDS011;23894;51.466;7.444;2022-09-09T11:59:33;5.18;;;1.10;;
38083;SDS011;23894;51.466;7.444;2022-09-09T12:01:34;4.20;;;0.90;;
38083;SDS011;23894;51.466;7.444;2022-09-09T12:03:41;5.03;;;0.90;;
38083;SDS011;23894;51.466;7.444;2022-09-09T12:05:44;5.45;;;1.02;;
38083;SDS011;23894;51.466;7.444;2022-09-09T12:09:55;5.40;;;1.05;;
38083;SDS011;23894;51.466;7.444;2022-09-09T12:14:20;4.35;;;1.10;;
38083;SDS011;23894;51.466;7.444;2022-09-09T12:16:27;5.50;;;1.20;;
38083;SDS011;23894;51.466;7.444;2022-09-09T12:20:36;5.20;;;1.27;;
38083;SDS011;23894;51.466;7.444;2022-09-09T12:25:03;5.25;;;1.38;;
38083;SDS011;23894;51.466;7.444;2022-09-09T12:27:33;5.80;;;1.08;;
38083;SDS011;23894;51.466;7.444;2022-09-09T12:31:46;6.70;;;1.38;;
38083;SDS011;23894;51.466;7.444;2022-09-09T12:34:10;13.13;;;1.30;;
38083;SDS011;23894;51.466;7.444;2022-09-09T12:36:16;6.93;;;1.10;;
38083;SDS011;23894;51.466;7.444;2022-09-09T12:38:21;11.13;;;1.77;;
38083;SDS011;23894;51.466;7.444;2022-09-09T12:40:24;10.35;;;1.40;;
38083;SDS011;23894;51.466;7.444;2022-09-09T12:42:26;4.88;;;1.13;;
38083;SDS011;23894;51.466;7.444;2022-09-09T12:44:27;4.30;;;1.27;;
38083;SDS011;23894;51.466;7.444;2022-09-09T12:46:32;5.47;;;1.42;;
38083;SDS011;23894;51.466;7.444;2022-09-09T12:48:35;4.78;;;1.52;;
38083;SDS011;23894;51.466;7.444;2022-09-09T12:50:38;5.60;;;1.45;;
38083;SDS011;23894;51.466;7.444;2022-09-09T12:52:45;5.00;;;1.40;;
38083;SDS011;23894;51.466;7.444;2022-09-09T12:54:47;5.63;;;1.42;;
38083;SDS011;23894;51.466;7.444;2022-09-09T12:56:48;4.43;;;1.30;;
38083;SDS011;23894;51.466;7.444;2022-09-09T12:58:50;4.35;;;1.02;;
38083;SDS011;23894;51.466;7.444;2022-09-09T13:00:52;3.90;;;1.08;;
38083;SDS011;23894;51.466;7.444;2022-09-09T13:02:59;3.90;;;1.20;;
38083;SDS011;23894;51.466;7.444;2022-09-09T13:05:18;6.78;;;1.40;;
38083;SDS011;23894;51.466;7.444;2022-09-09T13:07:21;6.90;;;1.10;;
38083;SDS011;23894;51.466;7.444;2022-09-09T13:09:22;5.28;;;1.20;;
38083;SDS011;23894;51.466;7.444;2022-09-09T13:13:38;3.22;;;0.90;;
38083;SDS011;23894;51.466;7.444;2022-09-09T13:15:40;2.95;;;1.10;;
38083;SDS011;23894;51.466;7.444;2022-09-09T13:17:54;5.07;;;1.00;;
38083;SDS011;23894;51.466;7.444;2022-09-09T13:19:57;5.68;;;1.30;;
38083;SDS011;23894;51.466;7.444;2022-09-09T13:21:58;8.75;;;1.38;;
38083;SDS011;23894;51.466;7.444;2022-09-09T13:23:58;5.13;;;1.40;;
38083;SDS011;23894;51.466;7.444;2022-09-09T13:26:18;5.25;;;1.20;;
38083;SDS011;23894;51.466;7.444;2022-09-09T13:28:22;5.15;;;1.40;;
38083;SDS011;23894;51.466;7.444;2022-09-09T13:30:25;6.07;;;1.30;;
38083;SDS011;23894;51.466;7.444;2022-09-09T13:32:28;4.28;;;1.10;;
38083;SDS011;23894;51.466;7.444;2022-09-09T13:34:31;5.78;;;1.30;;
38083;SDS011;23894;51.466;7.444;2022-09-09T13:36:33;6.60;;;1.42;;
38083;SDS011;23894;51.466;7.444;2022-09-09T13:38:38;7.55;;;1.30;;
38083;SDS011;23894;51.466;7.444;2022-09-09T13:40:55;3.78;;;1.20;;
38083;SDS011;23894;51.466;7.444;2022-09-09T13:43:04;6.88;;;1.20;;
38083;SDS011;23894;51.466;7.444;2022-09-09T13:45:05;3.53;;;0.90;;
38083;SDS011;23894;51.466;7.444;2022-09-09T13:51:29;4.93;;;1.08;;
38083;SDS011;23894;51.466;7.444;2022-09-09T13:53:36;5.07;;;1.27;;
38083;SDS011;23894;51.466;7.444;2022-09-09T13:55:37;6.65;;;1.33;;
38083;SDS011;23894;51.466;7.444;2022-09-09T13:57:49;5.75;;;1.25;;
38083;SDS011;23894;51.466;7.444;2022-09-09T13:59:54;3.85;;;0.93;;
38083;SDS011;23894;51.466;7.444;2022-09-09T14:01:56;5.88;;;1.20;;
38083;SDS011;23894;51.466;7.444;2022-09-09T14:03:59;5.88;;;1.15;;
38083;SDS011;23894;51.466;7.444;2022-09-09T14:06:01;6.53;;;1.10;;
38083;SDS011;23894;51.466;7.444;2022-09-09T14:08:03;5.68;;;1.40;;
38083;SDS011;23894;51.466;7.444;2022-09-09T14:10:05;5.18;;;1.15;;
38083;SDS011;23894;51.466;7.444;2022-09-09T14:12:10;6.03;;;1.63;;
38083;SDS011;23894;51.466;7.444;2022-09-09T14:14:12;7.40;;;1.42;;
38083;SDS011;23894;51.466;7.444;2022-09-09T14:16:15;5.47;;;1.38;;
38083;SDS011;23894;51.466;7.444;2022-09-09T14:18:17;4.78;;;1.45;;
38083;SDS011;23894;51.466;7.444;2022-09-09T14:20:19;4.80;;;1.20;;
38083;SDS011;23894;51.466;7.444;2022-09-09T14:22:22;5.43;;;1.20;;
38083;SDS011;23894;51.466;7.444;2022-09-09T14:24:25;5.85;;;1.40;;
38083;SDS011;23894;51.466;7.444;2022-09-09T14:26:27;5.55;;;1.58;;
38083;SDS011;23894;51.466;7.444;2022-09-09T14:28:31;5.53;;;1.42;;
38083;SDS011;23894;51.466;7.444;2022-09-09T14:30:34;5.07;;;1.30;;
38083;SDS011;23894;51.466;7.444;2022-09-09T14:32:36;4.72;;;1.20;;
38083;SDS011;23894;51.466;7.444;2022-09-09T14:34:39;5.75;;;1.33;;
38083;SDS011;23894;51.466;7.444;2022-09-09T14:36:41;3.80;;;1.10;;
38083;SDS011;23894;51.466;7.444;2022-09-09T14:38:45;5.13;;;1.20;;
38083;SDS011;23894;51.466;7.444;2022-09-09T14:40:46;5.80;;;1.20;;
38083;SDS011;23894;51.466;7.444;2022-09-09T14:42:48;4.82;;;1.00;;
38083;SDS011;23894;51.466;7.444;2022-09-09T14:44:50;5.88;;;1.30;;
38083;SDS011;23894;51.466;7.444;2022-09-09T14:46:53;3.42;;;1.00;;
38083;SDS011;23894;51.466;7.444;2022-09-09T14:48:55;6.18;;;1.20;;
38083;SDS011;23894;51.466;7.444;2022-09-09T14:50:56;4.40;;;1.00;;
38083;SDS011;23894;51.466;7.444;2022-09-09T14:52:59;4.60;;;1.20;;
38083;SDS011;23894;51.466;7.444;2022-09-09T14:55:01;5.00;;;1.10;;
38083;SDS011;23894;51.466;7.444;2022-09-09T14:57:04;5.18;;;1.30;;
38083;SDS011;23894;51.466;7.444;2022-09-09T14:59:05;4.40;;;1.10;;
38083;SDS011;23894;51.466;7.444;2022-09-09T15:01:07;4.07;;;1.10;;
38083;SDS011;23894;51.466;7.444;2022-09-09T15:03:10;7.38;;;1.65;;
38083;SDS011;23894;51.466;7.444;2022-09-09T15:05:11;5.75;;;1.25;;
38083;SDS011;23894;51.466;7.444;2022-09-09T15:07:13;5.65;;;1.50;;
38083;SDS011;23894;51.466;7.444;2022-09-09T15:09:18;5.72;;;1.30;;
38083;SDS011;23894;51.466;7.444;2022-09-09T15:11:20;5.30;;;1.40;;
38083;SDS011;23894;51.466;7.444;2022-09-09T15:13:25;5.50;;;1.40;;
38083;SDS011;23894;51.466;7.444;2022-09-09T15:15:26;5.50;;;1.33;;
38083;SDS011;23894;51.466;7.444;2022-09-09T15:17:28;4.40;;;1.20;;
38083;SDS011;23894;51.466;7.444;2022-09-09T15:19:30;4.75;;;1.30;;
38083;SDS011;23894;51.466;7.444;2022-09-09T15:21:34;5.78;;;1.38;;
38083;SDS011;23894;51.466;7.444;2022-09-09T15:23:36;5.38;;;1.48;;
38083;SDS011;23894;51.466;7.444;2022-09-09T15:25:38;5.97;;;1.48;;
38083;SDS011;23894;51.466;7.444;2022-09-09T15:27:39;5.10;;;1.30;;
38083;SDS011;23894;51.466;7.444;2022-09-09T15:29:40;5.25;;;1.42;;
38083;SDS011;23894;51.466;7.444;2022-09-09T15:31:41;5.90;;;1.30;;
38083;SDS011;23894;51.466;7.444;2022-09-09T15:33:49;6.05;;;1.50;;
38083;SDS011;23894;51.466;7.444;2022-09-09T15:35:50;5.13;;;1.38;;
38083;SDS011;23894;51.466;7.444;2022-09-09T15:37:51;4.97;;;1.27;;
38083;SDS011;23894;51.466;7.444;2022-09-09T15:41:53;6.53;;;1.70;;
38083;SDS011;23894;51.466;7.444;2022-09-09T15:43:55;24.92;;;2.60;;
38083;SDS011;23894;51.466;7.444;2022-09-09T15:45:57;23.33;;;2.90;;
38083;SDS011;23894;51.466;7.444;2022-09-09T15:48:00;21.75;;;2.15;;
38083;SDS011;23894;51.466;7.444;2022-09-09T15:50:01;10.00;;;1.77;;
38083;SDS011;23894;51.466;7.444;2022-09-09T15:52:02;21.63;;;2.30;;
38083;SDS011;23894;51.466;7.444;2022-09-09T15:56:08;8.10;;;1.33;;
38083;SDS011;23894;51.466;7.444;2022-09-09T15:58:09;7.20;;;2.00;;
38083;SDS011;23894;51.466;7.444;2022-09-09T16:00:12;6.82;;;1.95;;
38083;SDS011;23894;51.466;7.444;2022-09-09T16:02:13;7.38;;;1.92;;
38083;SDS011;23894;51.466;7.444;2022-09-09T16:06:21;5.97;;;1.95;;
38083;SDS011;23894;51.466;7.444;2022-09-09T16:08:22;6.25;;;2.10;;
38083;SDS011;23894;51.466;7.444;2022-09-09T16:10:24;7.78;;;1.58;;